Time;durP1;ratioP1;P1;durP2;ratioP2;P2;SDS_P1;SDS_P2;PMS_P1;PMS_P2;Temp;Humidity;BMP_temperature;BMP_pressure;BME280_temperature;BME280_humidity;BME280_pressure;Samples;Min_cycle;Max_cycle;Signal;HPM_P1;HPM_P2
2023/07/11 00:01:30;;;;;;;13.60;13.00;;;23.90;99.90;;;;;;4867887;29;20478;-81
2023/07/11 00:03:59;;;;;;;13.37;12.77;;;23.90;99.90;;;;;;4871721;29;20620;-81
2023/07/11 00:06:28;;;;;;;14.17;13.43;;;23.90;99.90;;;;;;4870036;29;20637;-81
2023/07/11 00:08:56;;;;;;;13.50;13.00;;;23.90;99.90;;;;;;4871894;29;20471;-82
2023/07/11 00:11:26;;;;;;;13.90;12.97;;;23.80;99.90;;;;;;4870895;29;20522;-80
2023/07/11 00:13:55;;;;;;;14.10;13.40;;;23.80;99.90;;;;;;4869417;29;20495;-79
2023/07/11 00:16:24;;;;;;;14.20;13.50;;;23.80;99.90;;;;;;4866304;29;20455;-79
2023/07/11 00:18:52;;;;;;;14.07;13.10;;;23.70;99.90;;;;;;4869801;29;20555;-80
2023/07/11 00:21:20;;;;;;;13.20;12.60;;;23.70;99.90;;;;;;4867925;29;20499;-80
2023/07/11 00:23:48;;;;;;;13.43;12.83;;;23.70;99.90;;;;;;4867069;29;20484;-79
2023/07/11 00:26:17;;;;;;;14.30;13.50;;;23.70;99.90;;;;;;4868715;29;20479;-80
2023/07/11 00:28:46;;;;;;;13.50;12.90;;;23.60;99.90;;;;;;4864432;29;20672;-81
2023/07/11 00:31:15;;;;;;;12.97;12.47;;;23.60;99.90;;;;;;4859503;29;20807;-79
2023/07/11 00:33:43;;;;;;;14.10;13.50;;;23.50;99.90;;;;;;4864883;29;20455;-80
2023/07/11 00:36:11;;;;;;;13.73;13.23;;;23.50;99.90;;;;;;4863911;29;21286;-79
2023/07/11 00:38:39;;;;;;;13.77;12.97;;;23.60;99.90;;;;;;4865424;29;20456;-79
2023/07/11 00:41:08;;;;;;;13.67;13.00;;;23.50;99.90;;;;;;4868821;29;20494;-81
2023/07/11 00:43:36;;;;;;;14.50;13.80;;;23.50;99.90;;;;;;4868599;29;20453;-82
2023/07/11 00:46:18;;;;;;;14.37;13.63;;;23.50;99.90;;;;;;4867609;29;20464;-83
2023/07/11 00:48:49;;;;;;;13.90;13.30;;;23.40;99.90;;;;;;4865467;29;20456;-81
2023/07/11 00:51:22;;;;;;;14.23;13.63;;;23.40;99.90;;;;;;4864710;29;20483;-82
2023/07/11 00:53:52;;;;;;;13.63;13.03;;;23.40;99.90;;;;;;4864839;29;20459;-81
2023/07/11 00:56:24;;;;;;;13.00;12.40;;;23.40;99.90;;;;;;4868938;29;20471;-82
2023/07/11 00:58:53;;;;;;;14.17;13.47;;;23.30;99.90;;;;;;4868714;29;20515;-81
2023/07/11 01:01:23;;;;;;;14.50;13.90;;;23.40;99.90;;;;;;4870134;29;21057;-82
2023/07/11 01:03:53;;;;;;;14.70;14.00;;;23.30;99.90;;;;;;4870796;29;20493;-82
2023/07/11 01:06:24;;;;;;;14.80;14.10;;;23.30;99.90;;;;;;4872313;29;20464;-82
2023/07/11 01:08:54;;;;;;;14.73;14.03;;;23.20;99.90;;;;;;4870337;29;20999;-81
2023/07/11 01:11:25;;;;;;;15.57;14.97;;;23.20;99.90;;;;;;4867776;29;20499;-82
2023/07/11 01:13:53;;;;;;;14.93;14.13;;;23.20;99.90;;;;;;4866735;29;21052;-84
2023/07/11 01:16:23;;;;;;;16.00;15.27;;;23.20;99.90;;;;;;4866298;29;20460;-84
2023/07/11 01:18:51;;;;;;;15.70;15.00;;;23.20;99.90;;;;;;4865140;29;20494;-83
2023/07/11 01:21:21;;;;;;;16.83;16.03;;;23.20;99.90;;;;;;4864625;29;20483;-83
2023/07/11 01:23:50;;;;;;;17.03;16.23;;;23.20;99.90;;;;;;4867191;29;20648;-84
2023/07/11 01:26:18;;;;;;;16.23;15.40;;;23.00;99.90;;;;;;4871310;29;20522;-82
2023/07/11 01:28:46;;;;;;;15.73;14.93;;;23.10;99.90;;;;;;4865039;29;20459;-82
2023/07/11 01:31:15;;;;;;;15.93;15.13;;;23.00;99.90;;;;;;4864708;29;20487;-83
2023/07/11 01:33:43;;;;;;;15.70;14.90;;;23.10;99.90;;;;;;4859964;29;20478;-82
2023/07/11 01:36:12;;;;;;;16.00;15.10;;;23.00;99.90;;;;;;4866712;29;20470;-82
2023/07/11 01:38:42;;;;;;;16.10;15.40;;;23.00;99.90;;;;;;4867225;29;20613;-83
2023/07/11 01:41:10;;;;;;;16.03;15.30;;;22.90;99.90;;;;;;4867945;29;21533;-83
2023/07/11 01:43:39;;;;;;;16.80;15.73;;;22.80;99.90;;;;;;4866617;29;20456;-84
2023/07/11 01:46:07;;;;;;;16.90;16.00;;;22.90;99.90;;;;;;4863241;29;20702;-82
2023/07/11 01:48:36;;;;;;;16.50;15.70;;;22.80;99.90;;;;;;4867931;29;21493;-82
2023/07/11 01:51:04;;;;;;;17.37;16.37;;;22.80;99.90;;;;;;4865559;29;20536;-82
2023/07/11 01:53:32;;;;;;;16.90;16.10;;;22.80;99.90;;;;;;4867795;29;20962;-83
2023/07/11 01:56:03;;;;;;;16.73;15.90;;;22.70;99.90;;;;;;4866007;29;20527;-83
2023/07/11 01:58:33;;;;;;;17.80;16.80;;;22.70;99.90;;;;;;4861645;29;21128;-82
2023/07/11 02:01:01;;;;;;;17.87;16.80;;;22.70;99.90;;;;;;4867433;29;21213;-80
2023/07/11 02:03:29;;;;;;;17.00;16.13;;;22.60;99.90;;;;;;4864655;29;20460;-81
2023/07/11 02:05:58;;;;;;;17.47;16.47;;;22.60;99.90;;;;;;4868336;29;20475;-81
2023/07/11 02:08:26;;;;;;;17.97;17.07;;;22.60;99.90;;;;;;4869676;29;20531;-82
2023/07/11 02:10:54;;;;;;;18.57;17.57;;;22.50;99.90;;;;;;4864421;29;20490;-82
2023/07/11 02:13:24;;;;;;;18.53;17.23;;;22.50;99.90;;;;;;4868553;29;20462;-83
2023/07/11 02:15:52;;;;;;;18.27;17.03;;;22.50;99.90;;;;;;4867448;29;20454;-81
2023/07/11 02:18:20;;;;;;;17.80;16.90;;;22.50;99.90;;;;;;4871102;29;20536;-82
2023/07/11 02:20:48;;;;;;;17.67;16.67;;;22.50;99.90;;;;;;4866779;29;20531;-82
2023/07/11 02:23:17;;;;;;;17.80;16.80;;;22.50;99.90;;;;;;4870010;29;20844;-82
2023/07/11 02:25:45;;;;;;;17.57;16.57;;;22.50;99.90;;;;;;4865298;29;20488;-81
2023/07/11 02:28:13;;;;;;;17.67;16.70;;;22.40;99.90;;;;;;4866076;29;20463;-82
2023/07/11 02:30:43;;;;;;;17.57;16.63;;;22.40;99.90;;;;;;4869422;29;20866;-81
2023/07/11 02:33:12;;;;;;;17.40;16.50;;;22.30;99.90;;;;;;4867616;29;20476;-81
2023/07/11 02:35:40;;;;;;;16.87;16.07;;;22.30;99.90;;;;;;4871303;29;20468;-81
2023/07/11 02:38:08;;;;;;;17.60;16.60;;;22.30;99.90;;;;;;4867462;29;20527;-82
2023/07/11 02:40:37;;;;;;;18.87;17.73;;;22.30;99.90;;;;;;4865947;29;20598;-81
2023/07/11 02:43:05;;;;;;;18.20;17.20;;;22.30;99.90;;;;;;4867905;29;20455;-81
2023/07/11 02:45:33;;;;;;;18.67;17.67;;;22.30;99.90;;;;;;4864942;29;21454;-83
2023/07/11 02:48:02;;;;;;;18.90;17.77;;;22.30;99.90;;;;;;4862486;29;20456;-80
2023/07/11 02:50:31;;;;;;;18.90;17.80;;;22.20;99.90;;;;;;4866122;29;20472;-80
2023/07/11 02:52:59;;;;;;;19.97;18.70;;;22.10;99.90;;;;;;4860045;29;20483;-80
2023/07/11 02:55:27;;;;;;;18.20;17.20;;;22.10;99.90;;;;;;4866353;29;20470;-80
2023/07/11 02:57:55;;;;;;;19.60;18.50;;;22.10;99.90;;;;;;4869726;29;20478;-79
2023/07/11 03:00:23;;;;;;;18.57;17.57;;;22.10;99.90;;;;;;4868021;29;20460;-79
2023/07/11 03:02:51;;;;;;;19.73;18.60;;;22.10;99.90;;;;;;4868530;29;20506;-80
2023/07/11 03:05:21;;;;;;;19.40;18.20;;;22.20;99.90;;;;;;4871733;29;20460;-81
2023/07/11 03:07:49;;;;;;;19.80;18.70;;;22.10;99.90;;;;;;4870161;29;21042;-81
2023/07/11 03:10:18;;;;;;;18.80;17.80;;;22.10;99.90;;;;;;4869314;29;20471;-81
2023/07/11 03:12:46;;;;;;;19.97;18.60;;;22.00;99.90;;;;;;4871691;29;20496;-80
2023/07/11 03:15:14;;;;;;;19.20;18.03;;;22.00;99.90;;;;;;4871853;29;20474;-81
2023/07/11 03:17:42;;;;;;;19.60;18.50;;;22.00;99.90;;;;;;4873611;29;20522;-80
2023/07/11 03:20:11;;;;;;;19.70;18.60;;;22.00;99.90;;;;;;4864788;29;20507;-79
2023/07/11 03:22:40;;;;;;;21.33;20.03;;;21.90;99.90;;;;;;4868040;29;20491;-79
2023/07/11 03:25:09;;;;;;;20.63;19.37;;;21.90;99.90;;;;;;4866366;29;20467;-81
2023/07/11 03:27:37;;;;;;;19.17;17.93;;;21.90;99.90;;;;;;4867435;29;20459;-80
2023/07/11 03:30:06;;;;;;;19.37;18.17;;;22.00;99.90;;;;;;4865711;29;20509;-80
2023/07/11 03:32:35;;;;;;;19.33;17.90;;;21.90;99.90;;;;;;4871253;29;20486;-81
2023/07/11 03:35:03;;;;;;;17.60;16.70;;;21.90;99.90;;;;;;4868468;29;20470;-81
2023/07/11 03:37:32;;;;;;;19.10;18.00;;;21.90;99.90;;;;;;4863512;29;20495;-79
2023/07/11 03:40:02;;;;;;;19.47;18.00;;;21.90;99.90;;;;;;4866757;29;20466;-80
2023/07/11 03:42:31;;;;;;;18.77;17.70;;;21.90;99.90;;;;;;4865670;29;20496;-81
2023/07/11 03:44:59;;;;;;;19.60;18.50;;;21.90;99.90;;;;;;4870640;29;20470;-81
2023/07/11 03:47:27;;;;;;;18.80;17.80;;;21.90;99.90;;;;;;4870898;29;20467;-81
2023/07/11 03:49:55;;;;;;;18.83;17.73;;;21.90;99.90;;;;;;4869437;29;20545;-82
2023/07/11 03:52:23;;;;;;;18.27;17.27;;;21.90;99.90;;;;;;4868969;29;20503;-81
2023/07/11 03:54:52;;;;;;;19.20;18.10;;;21.90;99.90;;;;;;4871029;29;20455;-82
2023/07/11 03:57:21;;;;;;;18.27;17.07;;;21.90;99.90;;;;;;4867297;29;20476;-81
2023/07/11 03:59:49;;;;;;;18.40;17.40;;;21.90;99.90;;;;;;4868985;29;21017;-80
2023/07/11 04:02:17;;;;;;;18.63;17.43;;;21.90;99.90;;;;;;4861749;29;20505;-79
2023/07/11 04:04:46;;;;;;;18.37;17.27;;;21.90;99.90;;;;;;4871600;29;20515;-82
2023/07/11 04:07:14;;;;;;;19.80;18.70;;;22.00;99.90;;;;;;4864694;29;20503;-82
2023/07/11 04:09:44;;;;;;;18.93;17.83;;;22.00;99.90;;;;;;4871990;29;21004;-82
2023/07/11 04:12:12;;;;;;;19.37;18.23;;;22.00;99.90;;;;;;4868612;29;20495;-81
2023/07/11 04:14:42;;;;;;;18.60;17.63;;;22.00;99.90;;;;;;4870033;29;21108;-81
2023/07/11 04:17:10;;;;;;;19.60;18.23;;;22.00;99.90;;;;;;4884203;29;20506;-80
2023/07/11 04:19:38;;;;;;;18.03;17.03;;;22.00;99.90;;;;;;4871322;29;20590;-83
2023/07/11 04:22:06;;;;;;;17.30;16.43;;;22.00;99.90;;;;;;4867474;29;20483;-81
2023/07/11 04:24:34;;;;;;;19.00;17.73;;;22.10;99.90;;;;;;4873562;29;20471;-83
2023/07/11 04:27:03;;;;;;;18.67;17.63;;;22.10;99.90;;;;;;4869479;29;20459;-81
2023/07/11 04:29:31;;;;;;;19.57;18.47;;;22.10;99.90;;;;;;4870914;29;20456;-81
2023/07/11 04:32:00;;;;;;;18.27;17.17;;;22.10;99.90;;;;;;4864536;29;21301;-79
2023/07/11 04:34:29;;;;;;;19.80;18.50;;;22.20;99.90;;;;;;4863837;29;20563;-79
2023/07/11 04:36:57;;;;;;;20.23;19.00;;;22.10;99.90;;;;;;4863669;29;20459;-78
2023/07/11 04:39:25;;;;;;;20.77;19.47;;;22.20;99.90;;;;;;4863096;29;20468;-79
2023/07/11 04:41:53;;;;;;;20.20;18.70;;;22.20;99.90;;;;;;4860293;29;20888;-81
2023/07/11 04:44:21;;;;;;;19.17;17.97;;;22.30;99.90;;;;;;4867238;29;20463;-80
2023/07/11 04:46:49;;;;;;;19.90;18.87;;;22.30;99.90;;;;;;4866362;29;20474;-79
2023/07/11 04:49:19;;;;;;;20.07;18.87;;;22.30;99.90;;;;;;4871029;29;20966;-79
2023/07/11 04:51:47;;;;;;;21.50;20.00;;;22.30;99.90;;;;;;4853358;29;20528;-79
2023/07/11 04:54:15;;;;;;;20.50;19.20;;;22.30;99.90;;;;;;4865018;29;20520;-79
2023/07/11 04:56:43;;;;;;;20.10;18.60;;;22.40;99.90;;;;;;4863809;29;20463;-80
2023/07/11 04:59:11;;;;;;;21.17;19.77;;;22.40;99.90;;;;;;4865005;29;20471;-79
2023/07/11 05:01:39;;;;;;;19.27;18.20;;;22.40;99.90;;;;;;4867225;29;20475;-79
2023/07/11 05:04:08;;;;;;;19.90;18.90;;;22.40;99.90;;;;;;4863276;29;20486;-79
2023/07/11 05:06:40;;;;;;;20.07;18.87;;;22.50;99.90;;;;;;4868715;29;20486;-82
2023/07/11 05:09:08;;;;;;;19.30;18.20;;;22.60;99.90;;;;;;4872203;29;21322;-84
2023/07/11 05:11:38;;;;;;;17.93;16.97;;;22.60;99.90;;;;;;4868747;29;20491;-83
2023/07/11 05:14:06;;;;;;;18.27;17.30;;;22.70;99.90;;;;;;4869620;29;20555;-84
2023/07/11 05:16:35;;;;;;;18.87;17.87;;;22.70;99.90;;;;;;4869166;29;20512;-84
2023/07/11 05:19:14;;;;;;;19.50;18.10;;;22.80;99.90;;;;;;4869210;29;20459;-85
2023/07/11 05:21:44;;;;;;;20.00;18.90;;;22.80;99.90;;;;;;4864227;29;20477;-84
2023/07/11 05:24:15;;;;;;;18.77;17.77;;;22.80;99.90;;;;;;4863634;29;20479;-84
2023/07/11 05:26:43;;;;;;;18.80;17.80;;;22.90;99.90;;;;;;4865067;29;21139;-84
2023/07/11 05:29:11;;;;;;;18.87;17.80;;;22.90;99.90;;;;;;4863394;29;20503;-82
2023/07/11 05:31:39;;;;;;;17.70;16.70;;;22.90;99.90;;;;;;4864751;29;20487;-83
2023/07/11 05:34:10;;;;;;;18.53;17.27;;;22.90;99.90;;;;;;4868913;29;20823;-81
2023/07/11 05:36:38;;;;;;;18.17;17.07;;;23.00;99.90;;;;;;4872066;29;20468;-82
2023/07/11 05:39:10;;;;;;;17.90;16.90;;;23.10;99.90;;;;;;4867682;29;20546;-80
2023/07/11 05:41:41;;;;;;;17.53;16.53;;;23.10;99.90;;;;;;4869227;29;21419;-83
2023/07/11 05:44:10;;;;;;;19.40;18.20;;;23.10;99.90;;;;;;4872307;29;20456;-83
2023/07/11 05:46:38;;;;;;;18.50;17.63;;;23.20;99.90;;;;;;4864397;29;20457;-82
2023/07/11 05:49:08;;;;;;;19.03;17.90;;;23.20;99.90;;;;;;4882233;29;20459;-83
2023/07/11 05:51:36;;;;;;;19.67;18.23;;;23.20;99.90;;;;;;4872577;29;20528;-82
2023/07/11 05:54:04;;;;;;;19.80;18.67;;;23.30;99.90;;;;;;4874415;29;20539;-82
2023/07/11 05:56:34;;;;;;;19.60;18.43;;;23.30;99.90;;;;;;4868880;29;20515;-81
2023/07/11 05:59:02;;;;;;;19.87;18.57;;;23.30;99.90;;;;;;4872732;29;20520;-83
2023/07/11 06:01:32;;;;;;;19.97;18.60;;;23.30;99.90;;;;;;4869765;29;20510;-82
2023/07/11 06:04:06;;;;;;;19.07;18.17;;;23.40;99.90;;;;;;4868292;29;20468;-82
2023/07/11 06:06:41;;;;;;;19.87;18.47;;;23.50;99.90;;;;;;4870868;29;20478;-82
2023/07/11 06:09:12;;;;;;;17.03;16.13;;;23.50;99.90;;;;;;4872347;29;20459;-82
2023/07/11 06:11:45;;;;;;;17.73;16.80;;;23.60;99.90;;;;;;4867412;29;20479;-79
2023/07/11 06:14:17;;;;;;;18.27;17.43;;;23.60;99.90;;;;;;4863924;29;21044;-80
2023/07/11 06:16:46;;;;;;;18.63;17.30;;;23.70;99.90;;;;;;4866209;29;20507;-79
2023/07/11 06:19:18;;;;;;;18.87;17.63;;;23.70;99.90;;;;;;4866477;29;21126;-81
2023/07/11 06:21:46;;;;;;;18.90;17.80;;;23.90;99.90;;;;;;4861253;29;20479;-80
2023/07/11 06:24:17;;;;;;;17.03;16.30;;;23.80;99.90;;;;;;4857948;29;20210;-82
2023/07/11 06:26:46;;;;;;;17.70;16.90;;;23.80;99.90;;;;;;4862240;29;20817;-79
2023/07/11 06:29:14;;;;;;;17.70;16.80;;;23.80;99.90;;;;;;4865982;29;21199;-81
2023/07/11 06:31:44;;;;;;;17.63;16.83;;;23.80;99.90;;;;;;4869462;29;20486;-83
2023/07/11 06:34:15;;;;;;;19.03;17.93;;;23.80;99.90;;;;;;4884449;29;20480;-83
2023/07/11 06:36:51;;;;;;;18.40;17.43;;;23.90;99.90;;;;;;4867187;29;20523;-84
2023/07/11 06:39:20;;;;;;;16.90;16.20;;;23.90;99.90;;;;;;4873669;29;21108;-84
2023/07/11 06:41:52;;;;;;;16.83;16.13;;;23.90;99.90;;;;;;4871656;29;21061;-83
2023/07/11 06:44:21;;;;;;;18.00;17.10;;;24.00;99.90;;;;;;4870248;29;20819;-88
2023/07/11 06:46:49;;;;;;;17.87;16.77;;;24.10;99.90;;;;;;4870307;29;20986;-85
2023/07/11 06:49:17;;;;;;;17.53;16.70;;;24.20;99.90;;;;;;4872846;29;20499;-84
2023/07/11 06:51:45;;;;;;;17.10;16.40;;;24.20;99.90;;;;;;4873334;29;20480;-85
2023/07/11 06:54:14;;;;;;;16.80;16.00;;;24.30;99.90;;;;;;4872805;29;20476;-84
2023/07/11 06:56:42;;;;;;;18.20;17.00;;;24.40;99.90;;;;;;4890174;29;20502;-84
2023/07/11 06:59:19;;;;;;;17.27;16.33;;;24.50;99.90;;;;;;4875348;29;20475;-84
2023/07/11 07:01:47;;;;;;;17.50;16.70;;;24.60;99.90;;;;;;4867555;29;20512;-86
2023/07/11 07:04:16;;;;;;;17.47;16.80;;;24.70;99.90;;;;;;4869712;29;20214;-85
2023/07/11 07:06:45;;;;;;;17.70;16.50;;;24.70;99.90;;;;;;4867225;29;20471;-84
2023/07/11 07:09:16;;;;;;;18.07;17.03;;;24.80;99.90;;;;;;4869008;29;20511;-85
2023/07/11 07:11:45;;;;;;;18.57;17.57;;;24.90;99.90;;;;;;4864290;29;20476;-86
2023/07/11 07:14:14;;;;;;;18.23;17.33;;;25.00;99.90;;;;;;4872486;29;20489;-85
2023/07/11 07:16:43;;;;;;;17.90;17.00;;;25.00;99.90;;;;;;4867994;29;20465;-85
2023/07/11 07:19:12;;;;;;;18.67;17.77;;;25.00;99.90;;;;;;4871833;29;20460;-85
2023/07/11 07:21:40;;;;;;;16.27;15.63;;;25.10;99.90;;;;;;4869506;29;20491;-86
2023/07/11 07:24:08;;;;;;;17.57;16.40;;;25.10;99.90;;;;;;4871323;29;21029;-86
2023/07/11 07:26:37;;;;;;;17.47;16.57;;;25.10;99.90;;;;;;4869776;29;20460;-84
2023/07/11 07:29:06;;;;;;;18.50;17.10;;;25.20;99.90;;;;;;4869078;29;20464;-85
2023/07/11 07:31:35;;;;;;;18.50;17.70;;;25.30;99.90;;;;;;4868230;29;20632;-85
2023/07/11 07:34:04;;;;;;;18.13;17.33;;;25.40;99.90;;;;;;4867957;29;20523;-85
2023/07/11 07:36:32;;;;;;;19.00;17.80;;;25.40;99.90;;;;;;4866865;29;20478;-85
2023/07/11 07:39:00;;;;;;;17.53;16.53;;;25.40;99.90;;;;;;4873643;29;21182;-85
2023/07/11 07:41:28;;;;;;;18.10;17.20;;;25.50;99.90;;;;;;4869118;29;20483;-85
2023/07/11 07:43:56;;;;;;;19.80;18.80;;;25.60;99.90;;;;;;4870766;29;20466;-85
2023/07/11 07:46:46;;;;;;;;;;;;;;;;;;;;;
2023/07/11 08:02:15;;;;;;;19.30;18.50;;;25.80;99.90;;;;;;4848783;29;20860;-85
2023/07/11 08:04:43;;;;;;;17.97;17.17;;;26.00;99.90;;;;;;4871758;29;20448;-85
2023/07/11 08:07:11;;;;;;;18.93;18.03;;;26.10;99.90;;;;;;4872567;29;21151;-84
2023/07/11 08:09:42;;;;;;;18.40;17.60;;;26.10;99.90;;;;;;4871324;29;20467;-85
2023/07/11 08:12:11;;;;;;;18.50;17.60;;;26.20;99.90;;;;;;4867214;29;20482;-83
2023/07/11 08:14:42;;;;;;;18.47;17.50;;;26.20;99.90;;;;;;4870798;29;20487;-85
2023/07/11 08:17:11;;;;;;;18.20;17.40;;;26.30;99.90;;;;;;4870757;29;20463;-84
2023/07/11 08:19:41;;;;;;;18.43;17.73;;;26.40;99.90;;;;;;4873140;29;20564;-85
2023/07/11 08:22:09;;;;;;;17.53;16.83;;;26.50;99.90;;;;;;4869508;29;20934;-85
2023/07/11 08:24:37;;;;;;;18.97;18.00;;;26.50;99.90;;;;;;4867820;29;20970;-85
2023/07/11 08:27:05;;;;;;;18.73;17.93;;;26.50;99.90;;;;;;4870874;29;21180;-85
2023/07/11 08:29:34;;;;;;;18.13;17.27;;;26.60;99.90;;;;;;4871849;29;20495;-85
2023/07/11 08:32:02;;;;;;;18.37;17.67;;;26.60;99.90;;;;;;4871450;29;20475;-85
2023/07/11 08:34:31;;;;;;;18.43;17.63;;;26.60;99.90;;;;;;4872701;29;20512;-86
2023/07/11 08:37:00;;;;;;;19.77;18.67;;;26.60;99.90;;;;;;4867810;29;20468;-85
2023/07/11 08:39:29;;;;;;;19.20;18.40;;;26.60;99.90;;;;;;4863821;29;20470;-86
2023/07/11 08:42:01;;;;;;;19.50;18.57;;;26.80;99.90;;;;;;4862627;29;20491;-86
2023/07/11 08:44:35;;;;;;;19.00;18.10;;;26.80;99.90;;;;;;4868572;29;20471;-85
2023/07/11 08:47:07;;;;;;;19.50;18.53;;;26.90;99.90;;;;;;4870504;29;20455;-85
2023/07/11 08:49:40;;;;;;;18.43;17.53;;;27.00;99.90;;;;;;4874158;29;20464;-86
2023/07/11 08:52:11;;;;;;;19.10;18.20;;;27.00;99.90;;;;;;4869240;29;20477;-84
2023/07/11 08:54:48;;;;;;;19.90;18.90;;;26.90;99.90;;;;;;4869748;29;20574;-85
2023/07/11 08:57:18;;;;;;;19.77;18.80;;;27.00;99.90;;;;;;4865936;29;20462;-85
2023/07/11 08:59:57;;;;;;;20.27;19.30;;;27.00;99.90;;;;;;4883489;29;20806;-84
2023/07/11 09:02:33;;;;;;;19.80;18.90;;;27.10;99.90;;;;;;4869232;29;20484;-84
2023/07/11 09:05:04;;;;;;;19.80;18.90;;;27.10;99.90;;;;;;4870056;29;20992;-85
2023/07/11 09:07:39;;;;;;;20.40;19.50;;;27.10;99.90;;;;;;4872773;29;20816;-85
2023/07/11 09:10:26;;;;;;;21.40;20.50;;;27.20;99.90;;;;;;4868494;29;20514;-84
2023/07/11 09:13:31;;;;;;;20.50;19.60;;;27.20;99.90;;;;;;4869562;29;20548;-85
2023/07/11 09:16:08;;;;;;;20.73;19.57;;;27.30;99.90;;;;;;4867823;29;20471;-83
2023/07/11 09:18:49;;;;;;;21.67;20.60;;;27.30;99.90;;;;;;4869534;29;20468;-84
2023/07/11 09:21:23;;;;;;;20.17;19.20;;;27.30;99.90;;;;;;4873386;29;20483;-82
2023/07/11 09:24:04;;;;;;;20.83;19.90;;;27.30;99.90;;;;;;4868641;29;20472;-84
2023/07/11 09:26:50;;;;;;;21.33;20.13;;;27.40;99.90;;;;;;4865253;29;20559;-84
2023/07/11 09:29:20;;;;;;;21.40;20.30;;;27.60;99.90;;;;;;4870073;29;20540;-85
2023/07/11 09:31:56;;;;;;;20.57;19.37;;;27.50;99.90;;;;;;4866787;29;20476;-85
2023/07/11 09:34:28;;;;;;;20.53;19.40;;;27.50;99.90;;;;;;4868132;29;20447;-84
2023/07/11 09:36:57;;;;;;;20.60;19.47;;;27.50;99.90;;;;;;4867591;29;20639;-84
2023/07/11 09:39:36;;;;;;;20.70;19.70;;;27.60;99.90;;;;;;4869607;29;20495;-84
2023/07/11 09:42:15;;;;;;;20.23;19.33;;;27.70;99.90;;;;;;4869099;29;20495;-86
2023/07/11 09:44:58;;;;;;;19.57;18.77;;;27.80;99.90;;;;;;4867443;29;20567;-84
2023/07/11 09:47:30;;;;;;;20.27;19.47;;;27.90;99.90;;;;;;4866912;29;20517;-84
2023/07/11 09:50:01;;;;;;;20.50;19.50;;;27.90;99.90;;;;;;4865784;29;20579;-83
2023/07/11 09:52:29;;;;;;;19.73;18.73;;;28.10;99.90;;;;;;4864526;29;20622;-85
2023/07/11 09:54:58;;;;;;;20.60;19.57;;;28.10;99.90;;;;;;4866815;29;20474;-84
2023/07/11 09:57:43;;;;;;;21.57;20.53;;;28.10;99.90;;;;;;4863450;29;20464;-84
2023/07/11 10:00:13;;;;;;;20.97;19.93;;;28.20;99.90;;;;;;4866136;29;20705;-84
2023/07/11 10:02:47;;;;;;;20.93;19.93;;;28.40;99.90;;;;;;4868854;29;20479;-84
2023/07/11 10:05:16;;;;;;;19.70;18.80;;;28.50;99.90;;;;;;4868330;29;20451;-85
2023/07/11 10:07:44;;;;;;;19.80;18.77;;;28.60;99.90;;;;;;4866879;29;20472;-84
2023/07/11 10:10:15;;;;;;;21.73;20.33;;;28.60;99.90;;;;;;4868913;29;20455;-85
2023/07/11 10:12:45;;;;;;;20.50;19.40;;;28.60;99.90;;;;;;4867663;29;20518;-84
2023/07/11 10:15:16;;;;;;;20.67;19.57;;;28.60;99.90;;;;;;4864944;29;20586;-85
2023/07/11 10:17:48;;;;;;;21.13;20.03;;;28.80;99.90;;;;;;4865502;29;20456;-85
2023/07/11 10:21:11;;;;;;;20.97;19.97;;;28.80;99.90;;;;;;4862426;29;21381;-84
2023/07/11 10:23:54;;;;;;;20.93;19.93;;;28.70;99.90;;;;;;4865836;29;21031;-85
2023/07/11 10:26:30;;;;;;;20.40;19.60;;;28.70;99.90;;;;;;4870785;29;20470;-85
2023/07/11 10:32:28;;;;;;;19.17;18.27;;;29.00;99.90;;;;;;4891498;23;20510;-86
2023/07/11 10:35:30;;;;;;;21.23;20.23;;;29.00;99.90;;;;;;4878659;29;20472;-85
2023/07/11 10:38:45;;;;;;;20.27;19.33;;;29.00;99.90;;;;;;4882290;29;20465;-84
2023/07/11 10:41:19;;;;;;;20.97;19.57;;;28.90;99.90;;;;;;4873990;29;20508;-84
2023/07/11 10:44:19;;;;;;;20.57;19.47;;;28.90;99.90;;;;;;4878309;29;20562;-85
2023/07/11 10:47:55;;;;;;;21.27;19.90;;;28.90;99.90;;;;;;4869211;29;21113;-86
2023/07/11 10:50:47;;;;;;;20.67;19.73;;;29.10;99.90;;;;;;4834522;29;20477;-85
2023/07/11 10:53:36;;;;;;;19.90;18.90;;;29.10;99.90;;;;;;4875306;29;20467;-86
2023/07/11 11:04:37;;;;;;;21.33;20.27;;;29.20;99.90;;;;;;4882269;29;20474;-85
2023/07/11 11:11:07;;;;;;;20.93;20.03;;;29.40;99.90;;;;;;5088501;23;20464;-86
2023/07/11 12:00:45;;;;;;;22.43;21.30;;;29.50;99.90;;;;;;5184929;23;20503;-86
2023/07/11 12:42:46;;;;;;;20.90;19.90;;;30.50;99.90;;;;;;4820256;29;20488;-85
2023/07/11 12:45:22;;;;;;;20.80;19.70;;;30.50;99.90;;;;;;4855870;29;20464;-86
2023/07/11 12:52:21;;;;;;;20.30;19.07;;;30.40;99.90;;;;;;4861182;29;20818;-86
2023/07/11 12:54:50;;;;;;;21.07;20.03;;;30.50;99.90;;;;;;4864441;29;20459;-86
2023/07/11 12:57:23;;;;;;;19.83;19.03;;;30.80;99.90;;;;;;4863150;29;20476;-85
2023/07/11 12:59:53;;;;;;;19.57;18.57;;;30.80;99.90;;;;;;4862976;29;20881;-85
2023/07/11 13:02:27;;;;;;;20.80;19.50;;;30.70;99.90;;;;;;4864091;29;20502;-85
2023/07/11 13:04:58;;;;;;;20.10;18.93;;;30.50;99.90;;;;;;4861187;29;20495;-85
2023/07/11 13:07:29;;;;;;;21.60;20.23;;;30.40;99.90;;;;;;4865653;29;20513;-85
2023/07/11 13:09:59;;;;;;;19.47;18.57;;;30.30;99.90;;;;;;4861019;29;20475;-86
2023/07/11 13:12:33;;;;;;;20.03;19.00;;;30.40;99.90;;;;;;4862982;29;20556;-85
2023/07/11 13:15:12;;;;;;;20.73;19.43;;;30.50;99.90;;;;;;4862168;29;20501;-85
2023/07/11 13:17:41;;;;;;;19.17;18.10;;;30.50;99.90;;;;;;4864979;29;20472;-87
2023/07/11 13:20:18;;;;;;;19.70;18.77;;;30.60;99.90;;;;;;4863662;29;20478;-86
2023/07/11 13:22:47;;;;;;;18.67;17.77;;;30.80;99.90;;;;;;4863744;29;20494;-86
2023/07/11 13:25:19;;;;;;;18.43;17.43;;;30.80;99.90;;;;;;4863170;29;20460;-86
2023/07/11 13:27:48;;;;;;;18.70;17.90;;;30.80;99.90;;;;;;4860816;29;20592;-85
2023/07/11 13:30:23;;;;;;;19.80;18.70;;;30.60;99.90;;;;;;4844453;29;20492;-85
2023/07/11 13:32:56;;;;;;;18.73;17.63;;;30.50;99.90;;;;;;4843382;29;20557;-86
2023/07/11 13:35:29;;;;;;;18.93;17.93;;;30.50;99.90;;;;;;4841918;29;20475;-86
2023/07/11 13:38:17;;;;;;;18.20;17.30;;;30.50;99.90;;;;;;4843424;29;20650;-86
2023/07/11 13:41:05;;;;;;;18.50;17.53;;;30.90;99.90;;;;;;4841357;29;20469;-87
2023/07/11 13:50:48;;;;;;;18.07;17.17;;;31.00;99.90;;;;;;4903467;23;20590;-86
2023/07/11 14:01:20;;;;;;;18.47;17.50;;;31.00;99.90;;;;;;4963919;23;20567;-85
2023/07/11 14:03:57;;;;;;;17.90;17.00;;;30.80;99.90;;;;;;4866842;29;21832;-85
2023/07/11 14:11:33;;;;;;;17.80;16.90;;;31.20;99.90;;;;;;5253984;23;20472;-85
2023/07/11 14:14:11;;;;;;;17.97;16.97;;;31.10;99.90;;;;;;4883272;29;20480;-85
2023/07/11 14:17:04;;;;;;;17.60;16.70;;;31.10;99.90;;;;;;4885360;29;20471;-85
2023/07/11 14:19:37;;;;;;;16.80;15.90;;;31.00;99.90;;;;;;4889978;29;20447;-86
2023/07/11 14:22:14;;;;;;;17.87;16.87;;;31.10;99.90;;;;;;4909358;23;20496;-85
2023/07/11 14:24:46;;;;;;;17.33;16.20;;;31.10;99.90;;;;;;4900923;29;21148;-86
2023/07/11 14:30:20;;;;;;;16.83;15.83;;;31.00;99.90;;;;;;4913846;29;20480;-85
2023/07/11 14:41:37;;;;;;;16.70;15.80;;;31.20;99.90;;;;;;5015304;23;20528;-84
2023/07/11 14:47:57;;;;;;;18.00;17.00;;;31.30;99.90;;;;;;4887886;29;20473;-85
2023/07/11 14:54:58;;;;;;;17.70;16.70;;;31.40;99.90;;;;;;4878897;29;20467;-84
2023/07/11 14:57:55;;;;;;;17.97;16.87;;;31.30;99.90;;;;;;4880654;29;20488;-85
2023/07/11 15:01:14;;;;;;;19.03;17.93;;;31.50;99.90;;;;;;4890008;29;21190;-85
2023/07/11 15:08:24;;;;;;;17.97;16.87;;;31.40;99.90;;;;;;4866495;29;20482;-85
2023/07/11 15:11:23;;;;;;;17.63;16.30;;;31.40;99.90;;;;;;4884483;29;20570;-85
2023/07/11 15:14:00;;;;;;;17.93;16.73;;;31.50;99.90;;;;;;4881088;29;20458;-87
2023/07/11 15:20:23;;;;;;;16.53;15.63;;;31.40;99.90;;;;;;4861152;29;20520;-86
2023/07/11 15:23:29;;;;;;;16.23;15.27;;;31.40;99.90;;;;;;4870186;29;20489;-86
2023/07/11 15:26:24;;;;;;;17.37;16.27;;;31.40;99.90;;;;;;4875020;29;20507;-85
2023/07/11 15:37:09;;;;;;;15.10;14.30;;;31.40;99.90;;;;;;4849285;29;21081;-86
2023/07/11 15:43:32;;;;;;;17.20;16.10;;;31.40;99.90;;;;;;4882860;29;20525;-86
2023/07/11 15:53:10;;;;;;;17.30;16.30;;;31.30;99.90;;;;;;4889076;29;20545;-85
2023/07/11 15:56:27;;;;;;;17.60;16.50;;;31.10;99.90;;;;;;4893338;29;20454;-86
2023/07/11 15:58:57;;;;;;;15.30;14.50;;;31.20;99.90;;;;;;4885744;29;20559;-86
2023/07/11 16:01:25;;;;;;;16.23;15.33;;;31.10;99.90;;;;;;4877041;29;20460;-86